TVF49CW LFPO-EIDW
Flight info
| Callsign | TVF49CW |
|---|---|
| Flight time | N/A |
| Altitude | 34000 |
| Route | ATREX DCT VESAN DCT RATUK DCT SOVAT L613 SANDY L722 ICTAM T421 DIDZA DCT CESQA DCT BIBPE DCT OKTAD DCT AZCAL DCT MEDOG DCT LANON L18 LIPGO |
| Aircraft | B738/M-SDE2E3FGHIRWXY/LB1 |
Departure
| Time | 2026-04-30 14:23 |
|---|---|
| Airport | Paris-Orly Airport (LFPO) |
Arrival
| Time | N/A |
|---|---|
| Airport | Dublin Airport (EIDW) |
| Time | Latitude | Longitude | Altitude | Speed | Heading |
|---|---|---|---|---|---|
| 2026-04-30 14:10 | 48.72567 | 2.36133 | 283 ft | 0 kts | 348° |
| 2026-04-30 14:19 | 48.72510 | 2.36146 | 286 ft | 15 kts | 21° |
| 2026-04-30 14:19 | 48.72486 | 2.36116 | 290 ft | 0 kts | 71° |
| 2026-04-30 14:20 | 48.72487 | 2.36120 | 290 ft | 2 kts | 71° |
| 2026-04-30 14:20 | 48.72464 | 2.36228 | 284 ft | 10 kts | 157° |
| 2026-04-30 14:21 | 48.72387 | 2.36262 | 288 ft | 13 kts | 163° |
| 2026-04-30 14:21 | 48.72301 | 2.36310 | 286 ft | 13 kts | 147° |
| 2026-04-30 14:21 | 48.72212 | 2.36493 | 289 ft | 8 kts | 118° |
| 2026-04-30 14:22 | 48.72164 | 2.36537 | 289 ft | 8 kts | 162° |
| 2026-04-30 14:22 | 48.72081 | 2.36613 | 288 ft | 6 kts | 82° |
| 2026-04-30 14:22 | 48.72130 | 2.36883 | 290 ft | 61 kts | 74° |
| 2026-04-30 14:23 | 48.72388 | 2.38253 | 296 ft | 141 kts | 75° |
| 2026-04-30 14:23 | 48.72729 | 2.40064 | 986 ft | 155 kts | 76° |
| 2026-04-30 14:24 | 48.73269 | 2.43156 | 2542 ft | 162 kts | 77° |
| 2026-04-30 14:24 | 48.73622 | 2.44975 | 2843 ft | 197 kts | 75° |
| 2026-04-30 14:25 | 48.74182 | 2.49549 | 3488 ft | 246 kts | 88° |
| 2026-04-30 14:25 | 48.74309 | 2.54842 | 5058 ft | 258 kts | 92° |
| 2026-04-30 14:26 | 48.72877 | 2.59597 | 6661 ft | 258 kts | 142° |
| 2026-04-30 14:26 | 48.71288 | 2.60791 | 7460 ft | 259 kts | 167° |
| 2026-04-30 14:26 | 48.67813 | 2.59494 | 9003 ft | 275 kts | 219° |
| 2026-04-30 14:27 | 48.66689 | 2.57107 | 9703 ft | 288 kts | 246° |
| 2026-04-30 14:27 | 48.66252 | 2.54115 | 10391 ft | 299 kts | 265° |
| 2026-04-30 14:27 | 48.66278 | 2.50849 | 10676 ft | 321 kts | 271° |
| 2026-04-30 14:28 | 48.66470 | 2.43744 | 11521 ft | 348 kts | 269° |
| 2026-04-30 14:28 | 48.66407 | 2.40067 | 12152 ft | 352 kts | 257° |
| 2026-04-30 14:28 | 48.65610 | 2.36601 | 12964 ft | 349 kts | 244° |
| 2026-04-30 14:28 | 48.64783 | 2.33107 | 13631 ft | 360 kts | 258° |
| 2026-04-30 14:29 | 48.65816 | 2.25698 | 15108 ft | 371 kts | 297° |
| 2026-04-30 14:29 | 48.68421 | 2.18795 | 16474 ft | 383 kts | 300° |
| 2026-04-30 14:30 | 48.72396 | 2.08104 | 18583 ft | 395 kts | 301° |
| 2026-04-30 14:31 | 48.76568 | 2.02955 | 19765 ft | 397 kts | 343° |
| 2026-04-30 14:31 | 48.82002 | 2.02550 | 20950 ft | 395 kts | 11° |
| 2026-04-30 14:31 | 48.84741 | 2.03133 | 21527 ft | 399 kts | 12° |
| 2026-04-30 14:32 | 48.90272 | 2.04372 | 22697 ft | 406 kts | 12° |
| 2026-04-30 14:32 | 48.93083 | 2.04976 | 23265 ft | 409 kts | 12° |
| 2026-04-30 14:32 | 48.95916 | 2.05567 | 23820 ft | 412 kts | 12° |
| 2026-04-30 14:33 | 48.98775 | 2.06151 | 24296 ft | 415 kts | 12° |
| 2026-04-30 14:33 | 49.04543 | 2.07320 | 25231 ft | 421 kts | 11° |
| 2026-04-30 14:33 | 49.07459 | 2.07912 | 25686 ft | 424 kts | 12° |
| 2026-04-30 14:34 | 49.10353 | 2.08501 | 26121 ft | 427 kts | 11° |
| 2026-04-30 14:34 | 49.13284 | 2.09250 | 26542 ft | 426 kts | 20° |
| 2026-04-30 14:34 | 49.15952 | 2.11108 | 26949 ft | 420 kts | 35° |
| 2026-04-30 14:34 | 49.18433 | 2.13464 | 27406 ft | 421 kts | 36° |
| 2026-04-30 14:35 | 49.23404 | 2.18327 | 28183 ft | 427 kts | 36° |
| 2026-04-30 14:35 | 49.25923 | 2.20775 | 28590 ft | 430 kts | 36° |
| 2026-04-30 14:35 | 49.28467 | 2.23225 | 29004 ft | 433 kts | 36° |
| 2026-04-30 14:36 | 49.31025 | 2.25677 | 29381 ft | 435 kts | 36° |
| 2026-04-30 14:36 | 49.33602 | 2.28139 | 29755 ft | 438 kts | 36° |
| 2026-04-30 14:36 | 49.36191 | 2.30613 | 30158 ft | 439 kts | 36° |
| 2026-04-30 14:36 | 49.38786 | 2.33094 | 30629 ft | 437 kts | 36° |
| 2026-04-30 14:37 | 49.41356 | 2.35555 | 31135 ft | 434 kts | 36° |
| 2026-04-30 14:37 | 49.43876 | 2.37974 | 31566 ft | 433 kts | 36° |
| 2026-04-30 14:37 | 49.46432 | 2.40431 | 31962 ft | 432 kts | 36° |
| 2026-04-30 14:37 | 49.48977 | 2.42879 | 32389 ft | 431 kts | 36° |
| 2026-04-30 14:38 | 49.51523 | 2.45327 | 32854 ft | 429 kts | 34° |
| 2026-04-30 14:38 | 49.54283 | 2.47135 | 33202 ft | 438 kts | 15° |
| 2026-04-30 14:38 | 49.57336 | 2.47550 | 33578 ft | 445 kts | 359° |
| 2026-04-30 14:38 | 49.60377 | 2.46577 | 33953 ft | 450 kts | 345° |
| 2026-04-30 14:39 | 49.63345 | 2.45018 | 34186 ft | 453 kts | 343° |
| 2026-04-30 14:39 | 49.69313 | 2.41724 | 34163 ft | 456 kts | 343° |
| 2026-04-30 14:40 | 49.78221 | 2.37039 | 34169 ft | 448 kts | 344° |
| 2026-04-30 14:40 | 49.84104 | 2.33774 | 34179 ft | 450 kts | 342° |
| 2026-04-30 14:41 | 49.89959 | 2.30326 | 34179 ft | 450 kts | 341° |
| 2026-04-30 14:41 | 49.95828 | 2.26878 | 34176 ft | 451 kts | 342° |
| 2026-04-30 14:42 | 50.01709 | 2.23446 | 34181 ft | 452 kts | 342° |
| 2026-04-30 14:42 | 50.07605 | 2.20007 | 34184 ft | 453 kts | 342° |
| 2026-04-30 14:43 | 50.13468 | 2.16579 | 34178 ft | 453 kts | 341° |
| 2026-04-30 14:43 | 50.19373 | 2.13115 | 34181 ft | 454 kts | 341° |
| 2026-04-30 14:44 | 50.25286 | 2.09637 | 34175 ft | 454 kts | 341° |
| 2026-04-30 14:44 | 50.31191 | 2.06155 | 34175 ft | 454 kts | 341° |
| 2026-04-30 14:45 | 50.37003 | 2.02311 | 34169 ft | 456 kts | 332° |
| 2026-04-30 14:45 | 50.39641 | 1.99532 | 34166 ft | 457 kts | 321° |
| 2026-04-30 14:45 | 50.42052 | 1.96297 | 34179 ft | 457 kts | 319° |
| 2026-04-30 14:46 | 50.46797 | 1.89649 | 34163 ft | 457 kts | 319° |
| 2026-04-30 14:46 | 50.51561 | 1.83033 | 34159 ft | 457 kts | 319° |
| 2026-04-30 14:47 | 50.56361 | 1.76446 | 34158 ft | 457 kts | 319° |
| 2026-04-30 14:47 | 50.61122 | 1.69911 | 34157 ft | 457 kts | 319° |
| 2026-04-30 14:48 | 50.65908 | 1.63318 | 34161 ft | 457 kts | 319° |
| 2026-04-30 14:48 | 50.70695 | 1.56699 | 34163 ft | 457 kts | 319° |
| 2026-04-30 14:49 | 50.75477 | 1.50071 | 34172 ft | 457 kts | 319° |
| 2026-04-30 14:49 | 50.80257 | 1.43429 | 34182 ft | 457 kts | 319° |
| 2026-04-30 14:50 | 50.87382 | 1.33506 | 34199 ft | 457 kts | 319° |
| 2026-04-30 14:51 | 50.94529 | 1.23506 | 34207 ft | 457 kts | 319° |
| 2026-04-30 14:52 | 51.01678 | 1.13463 | 34211 ft | 457 kts | 319° |
| 2026-04-30 14:52 | 51.05968 | 1.06047 | 34217 ft | 456 kts | 302° |
| 2026-04-30 14:52 | 51.07548 | 1.01670 | 34220 ft | 455 kts | 293° |
| 2026-04-30 14:53 | 51.10704 | 0.87460 | 34216 ft | 455 kts | 286° |
| 2026-04-30 14:54 | 51.14748 | 0.68398 | 34211 ft | 456 kts | 287° |
| 2026-04-30 14:55 | 51.17839 | 0.54033 | 34209 ft | 457 kts | 287° |
| 2026-04-30 14:56 | 51.21928 | 0.34859 | 34214 ft | 457 kts | 286° |
| 2026-04-30 14:57 | 51.24975 | 0.20431 | 34216 ft | 457 kts | 286° |
| 2026-04-30 14:58 | 51.28996 | 0.01165 | 34214 ft | 457 kts | 286° |
| 2026-04-30 14:58 | 51.31992 | -0.13298 | 34213 ft | 456 kts | 285° |
| 2026-04-30 15:00 | 51.36923 | -0.37337 | 34187 ft | 456 kts | 285° |
| 2026-04-30 15:01 | 51.40839 | -0.56640 | 34187 ft | 455 kts | 285° |
| 2026-04-30 15:01 | 51.43754 | -0.71132 | 34189 ft | 455 kts | 284° |
| 2026-04-30 15:02 | 51.45683 | -0.80786 | 34167 ft | 455 kts | 284° |
| 2026-04-30 15:03 | 51.50455 | -1.04858 | 34178 ft | 453 kts | 284° |
| 2026-04-30 15:04 | 51.56766 | -1.28057 | 34185 ft | 457 kts | 297° |
| 2026-04-30 15:06 | 51.63197 | -1.49325 | 34158 ft | 451 kts | 286° |
| 2026-04-30 15:07 | 51.67588 | -1.68298 | 34159 ft | 452 kts | 288° |
| 2026-04-30 15:08 | 51.71981 | -1.87237 | 34154 ft | 449 kts | 282° |
| 2026-04-30 15:09 | 51.75546 | -2.11628 | 34154 ft | 446 kts | 279° |
| 2026-04-30 15:10 | 51.78399 | -2.31123 | 34155 ft | 445 kts | 279° |
| 2026-04-30 15:11 | 51.82588 | -2.60228 | 34216 ft | 443 kts | 279° |
| 2026-04-30 15:13 | 51.85857 | -2.84547 | 34277 ft | 441 kts | 278° |
| 2026-04-30 15:14 | 51.90346 | -3.18411 | 34196 ft | 440 kts | 278° |
| 2026-04-30 15:17 | 51.98209 | -3.60633 | 34109 ft | 449 kts | 310° |
| 2026-04-30 15:19 | 52.15427 | -3.89506 | 33171 ft | 436 kts | 311° |